Time;durP1;ratioP1;P1;durP2;ratioP2;P2;SDS_P1;SDS_P2;PMS_P1;PMS_P2;Temp;Humidity;BMP_temperature;BMP_pressure;BME280_temperature;BME280_humidity;BME280_pressure;Samples;Min_cycle;Max_cycle;Signal;HPM_P1;HPM_P2
2022/06/19 00:00:16;;;;;;;15.32;5.45;;;26.40;52.50;;;26.71;60.05;99879.09;5007715;28;20168;-78
2022/06/19 00:02:45;;;;;;;12.32;4.85;;;26.30;52.00;;;26.65;61.83;99874.31;5008292;28;20675;-77
2022/06/19 00:05:14;;;;;;;16.05;5.43;;;26.30;52.30;;;26.55;62.10;99869.84;5007840;28;20046;-78
2022/06/19 00:07:42;;;;;;;13.47;4.73;;;26.20;52.30;;;26.45;62.43;99856.44;5008339;28;20166;-78
2022/06/19 00:10:10;;;;;;;17.50;5.10;;;26.20;52.30;;;26.42;62.13;99858.56;5007332;28;20287;-78
2022/06/19 00:12:39;;;;;;;11.05;3.85;;;26.10;52.40;;;26.49;59.66;99851.59;5008087;28;20156;-78
2022/06/19 00:15:09;;;;;;;14.50;5.10;;;26.10;52.20;;;26.42;59.45;99842.41;5013135;28;20050;-78
2022/06/19 00:17:37;;;;;;;19.50;4.90;;;26.00;52.00;;;26.42;57.81;99840.56;5029545;28;20510;-78
2022/06/19 00:20:06;;;;;;;14.82;4.68;;;26.00;51.90;;;26.43;57.65;99831.47;5008042;28;20046;-77
2022/06/19 00:22:33;;;;;;;16.38;5.65;;;26.00;51.90;;;26.45;56.07;99829.47;5025857;28;20055;-78
2022/06/19 00:25:04;;;;;;;14.20;4.55;;;26.00;51.80;;;26.45;57.12;99823.19;5012601;28;20104;-77
2022/06/19 00:27:39;;;;;;;15.80;5.25;;;26.00;51.70;;;26.46;57.31;99814.13;5028628;28;20053;-77
2022/06/19 00:30:11;;;;;;;14.27;4.97;;;26.00;51.90;;;26.45;56.46;99810.59;5011830;28;20056;-78
2022/06/19 00:32:38;;;;;;;13.23;4.97;;;26.00;51.70;;;26.35;58.25;99800.88;5028457;28;20056;-78
2022/06/19 00:35:06;;;;;;;12.55;5.10;;;26.00;52.00;;;26.32;58.89;99805.59;4995519;28;20526;-78
2022/06/19 00:37:37;;;;;;;19.85;4.93;;;25.90;52.00;;;26.31;59.11;99806.59;5030524;28;20041;-77
2022/06/19 00:40:10;;;;;;;15.85;4.35;;;25.90;52.20;;;26.28;58.98;99804.16;5014201;28;20062;-77
2022/06/19 00:42:45;;;;;;;15.55;4.85;;;25.80;52.10;;;26.26;58.82;99802.66;5029028;28;20100;-78
2022/06/19 00:45:51;;;;;;;12.90;4.22;;;25.80;52.20;;;26.31;58.01;99794.94;5011309;28;20507;-77
2022/06/19 00:48:37;;;;;;;14.23;4.35;;;25.80;52.30;;;26.23;58.07;99794.88;5009520;28;20160;-79
2022/06/19 00:51:05;;;;;;;15.20;5.53;;;25.80;52.40;;;26.17;59.04;99785.50;4998196;28;20099;-77
2022/06/19 00:53:44;;;;;;;13.10;4.43;;;25.70;52.40;;;26.05;60.78;99787.56;5029701;28;20037;-77
2022/06/19 00:56:18;;;;;;;14.23;4.80;;;25.60;52.60;;;26.00;60.58;99779.94;5029230;28;20033;-77
2022/06/19 00:58:49;;;;;;;12.68;4.40;;;25.60;52.90;;;26.05;61.43;99779.47;5011353;28;20769;-77
2022/06/19 01:01:25;;;;;;;10.52;4.03;;;25.60;52.80;;;25.94;63.12;99769.75;5012587;28;20045;-77
2022/06/19 01:03:57;;;;;;;13.55;4.72;;;25.60;53.10;;;25.91;63.48;99768.22;5011721;28;20147;-77
2022/06/19 01:06:26;;;;;;;12.98;4.72;;;25.50;53.10;;;25.95;61.92;99770.63;5012186;28;20052;-78
2022/06/19 01:08:55;;;;;;;18.23;5.32;;;25.50;52.90;;;25.82;63.61;99765.56;5011042;28;20049;-77
2022/06/19 01:11:25;;;;;;;9.27;4.30;;;25.50;53.30;;;25.84;62.92;99752.81;5024428;28;20042;-77
2022/06/19 01:13:52;;;;;;;14.85;4.88;;;25.40;53.20;;;25.79;61.52;99760.50;5008655;28;20045;-77
2022/06/19 01:16:19;;;;;;;18.17;5.20;;;25.40;53.10;;;25.61;63.63;99750.53;4995624;28;20763;-78
2022/06/19 01:18:47;;;;;;;19.38;5.00;;;25.30;53.20;;;25.78;60.29;99756.97;4998415;28;20108;-77
2022/06/19 01:21:40;;;;;;;20.48;5.20;;;25.30;53.00;;;25.75;61.48;99751.84;5002927;28;20147;-78
2022/06/19 01:24:22;;;;;;;15.98;5.20;;;25.30;53.20;;;25.67;65.60;99754.47;5028869;28;20044;-78
2022/06/19 01:26:54;;;;;;;12.50;4.30;;;25.20;53.60;;;25.70;63.70;99760.41;5028864;28;20053;-78
2022/06/19 01:29:21;;;;;;;15.50;4.88;;;25.20;53.40;;;25.58;64.86;99757.06;5028353;28;20150;-77
2022/06/19 01:31:54;;;;;;;14.82;4.32;;;25.20;53.60;;;25.56;63.33;99752.84;5028103;28;20042;-78
2022/06/19 01:34:35;;;;;;;15.77;4.78;;;25.10;53.40;;;25.45;66.05;99760.06;5028841;28;20051;-78
2022/06/19 01:37:16;;;;;;;10.07;4.32;;;25.10;53.80;;;25.44;66.56;99758.38;5028514;28;20045;-78
2022/06/19 01:39:55;;;;;;;12.57;5.25;;;25.10;54.00;;;25.44;63.62;99762.91;5013448;28;20120;-78
2022/06/19 01:42:23;;;;;;;14.25;4.68;;;25.00;53.60;;;25.26;68.59;99765.53;5029723;28;20048;-78
2022/06/19 01:44:53;;;;;;;17.13;4.50;;;25.00;54.20;;;25.27;66.80;99768.06;5029104;28;20128;-77
2022/06/19 01:47:25;;;;;;;25.02;5.05;;;24.90;54.00;;;25.33;62.01;99756.72;5029451;28;20059;-78
2022/06/19 01:49:55;;;;;;;15.43;4.70;;;24.90;53.40;;;25.27;65.05;99754.59;5027983;28;20479;-78
2022/06/19 01:52:25;;;;;;;;;;;24.80;54.00;;;25.32;65.08;99763.09;5010186;28;20487;-77
2022/06/19 01:55:07;;;;;;;10.68;5.38;;;24.80;54.00;;;25.28;66.60;99760.84;5025997;28;20396;-78
2022/06/19 01:57:40;;;;;;;15.15;5.10;;;24.80;54.10;;;25.16;69.31;99762.88;5009721;28;20049;-78
2022/06/19 02:00:14;;;;;;;14.70;5.72;;;24.80;54.50;;;25.07;71.68;99751.16;5024969;28;20042;-77
2022/06/19 02:02:47;;;;;;;15.00;5.00;;;24.80;54.90;;;24.99;73.00;99743.81;5010242;28;20042;-78
2022/06/19 02:05:14;;;;;;;14.50;3.88;;;24.70;55.10;;;24.90;73.80;99742.84;5026187;28;20129;-78
2022/06/19 02:07:41;;;;;;;13.18;4.40;;;24.60;55.30;;;24.81;74.02;99746.41;5028927;28;20093;-78
2022/06/19 02:10:08;;;;;;;13.75;4.65;;;24.50;55.40;;;24.76;76.14;99751.38;5010447;28;20108;-78
2022/06/19 02:12:36;;;;;;;16.73;4.63;;;24.50;55.60;;;24.77;74.31;99745.00;5010348;28;20053;-77
2022/06/19 02:15:09;;;;;;;13.10;4.00;;;24.40;55.50;;;24.75;73.46;99749.66;4994446;28;20148;-78
2022/06/19 02:17:49;;;;;;;13.20;4.57;;;24.40;55.60;;;24.68;76.36;99740.44;5026338;28;20157;-77
2022/06/19 02:20:18;;;;;;;11.80;3.92;;;24.30;56.00;;;24.66;75.32;99740.56;5026022;28;20132;-79
2022/06/19 02:22:46;;;;;;;11.77;4.65;;;24.30;55.90;;;24.57;77.37;99736.06;5030922;28;20064;-78
2022/06/19 02:25:13;;;;;;;12.55;4.03;;;24.30;56.10;;;24.55;75.04;99735.38;5016422;28;20046;-78
2022/06/19 02:27:41;;;;;;;17.95;5.07;;;24.20;56.20;;;24.56;76.57;99739.75;5015900;28;20054;-77
2022/06/19 02:30:12;;;;;;;17.15;4.70;;;24.20;56.30;;;24.49;77.89;99740.31;5015792;28;20037;-78
2022/06/19 02:32:45;;;;;;;11.85;4.18;;;24.20;56.50;;;24.55;73.47;99743.44;5033305;28;20116;-78
2022/06/19 02:35:20;;;;;;;21.40;5.97;;;24.20;56.20;;;24.41;76.10;99747.38;5032387;28;20128;-77
2022/06/19 02:37:54;;;;;;;15.57;4.65;;;24.10;56.60;;;24.52;74.59;99746.41;5016755;28;20056;-77
2022/06/19 02:40:51;;;;;;;13.90;4.68;;;24.20;56.20;;;24.45;75.64;99748.81;5013392;28;20059;-81
2022/06/19 02:43:26;;;;;;;20.67;6.07;;;24.00;56.40;;;24.39;74.10;99742.16;5029307;28;20481;-79
2022/06/19 02:45:55;;;;;;;15.60;4.43;;;24.00;56.30;;;24.19;79.25;99738.63;4998220;28;20054;-78
2022/06/19 02:48:29;;;;;;;12.73;4.45;;;24.00;56.80;;;24.28;74.58;99743.16;4976520;28;20053;-79
2022/06/19 02:51:00;;;;;;;14.13;4.65;;;23.90;56.80;;;24.15;84.99;99740.75;5012571;28;20438;-79
2022/06/19 02:53:28;;;;;;;17.52;5.35;;;23.80;57.80;;;24.07;88.28;99729.84;5028604;28;20164;-78
2022/06/19 02:55:57;;;;;;;14.35;4.30;;;23.80;58.60;;;24.02;86.27;99732.97;5029120;28;20133;-78
2022/06/19 02:58:25;;;;;;;9.27;3.33;;;23.70;58.60;;;23.99;87.90;99735.91;5029474;28;20041;-78
2022/06/19 03:00:52;;;;;;;16.48;4.10;;;23.70;58.70;;;23.89;89.67;99726.97;5028065;28;20426;-78
2022/06/19 03:03:28;;;;;;;11.65;4.38;;;23.60;59.30;;;23.84;93.51;99729.22;5045653;28;20490;-79
2022/06/19 03:05:55;;;;;;;11.20;4.13;;;23.60;60.10;;;23.73;93.58;99722.97;5029154;28;20053;-79
2022/06/19 03:08:22;;;;;;;15.27;4.78;;;23.50;60.40;;;23.67;92.48;99715.50;5013146;28;20410;-79
2022/06/19 03:10:49;;;;;;;10.90;3.83;;;23.50;60.60;;;23.64;94.49;99721.97;5011913;28;20052;-79
2022/06/19 03:13:21;;;;;;;14.88;5.18;;;23.40;61.00;;;23.71;90.16;99716.03;5029135;28;20045;-80
2022/06/19 03:16:04;;;;;;;13.50;4.32;;;23.40;60.40;;;23.71;92.14;99713.34;5045047;28;20050;-80
2022/06/19 03:18:31;;;;;;;17.17;4.65;;;23.40;61.10;;;23.67;91.01;99714.63;5012962;28;20240;-79
2022/06/19 03:20:59;;;;;;;14.05;5.07;;;23.40;61.00;;;23.66;89.43;99711.09;5024730;28;20060;-79
2022/06/19 03:23:26;;;;;;;12.00;4.95;;;23.30;60.90;;;23.64;92.27;99713.91;5010785;28;20049;-79
2022/06/19 03:25:54;;;;;;;12.00;4.35;;;23.30;61.50;;;23.62;91.67;99709.66;5009017;28;20045;-79
2022/06/19 03:28:21;;;;;;;14.35;4.05;;;23.30;61.60;;;23.59;90.35;99710.81;5009131;28;20068;-80
2022/06/19 03:30:54;;;;;;;12.10;4.55;;;23.30;61.80;;;23.54;93.11;99714.88;5007870;28;20080;-79
2022/06/19 03:33:21;;;;;;;12.50;4.78;;;23.30;62.30;;;23.50;91.66;99717.84;5008529;28;20053;-79
2022/06/19 03:35:49;;;;;;;15.20;4.43;;;23.30;62.30;;;23.47;94.92;99714.59;5009271;28;20053;-79
2022/06/19 03:38:16;;;;;;;12.88;4.07;;;23.20;63.10;;;23.41;93.76;99709.75;5009295;28;20046;-79
2022/06/19 03:40:43;;;;;;;16.00;4.50;;;23.10;63.10;;;23.36;91.13;99699.44;5024575;28;20514;-78
2022/06/19 03:43:11;;;;;;;13.65;4.55;;;23.10;62.90;;;23.42;93.88;99703.41;5025208;28;20421;-79
2022/06/19 03:45:38;;;;;;;12.35;4.90;;;23.10;63.80;;;23.37;93.99;99695.78;5009080;28;20042;-79
2022/06/19 03:48:06;;;;;;;9.40;3.78;;;23.10;64.10;;;23.37;94.57;99698.44;5024513;28;20056;-80
2022/06/19 03:50:33;;;;;;;13.27;3.80;;;23.00;64.30;;;23.32;94.52;99688.13;5008241;28;20060;-81
2022/06/19 03:53:00;;;;;;;13.50;3.97;;;23.00;64.70;;;23.39;92.29;99701.84;5044709;28;20056;-80
2022/06/19 03:55:27;;;;;;;15.30;4.72;;;23.00;64.70;;;23.38;93.10;99705.50;5044111;28;20248;-79
2022/06/19 03:57:54;;;;;;;11.25;3.95;;;23.00;64.70;;;23.41;91.64;99702.56;5044504;28;20042;-80
2022/06/19 04:00:21;;;;;;;17.05;4.57;;;23.00;64.70;;;23.37;94.42;99703.81;5042581;28;20037;-78
2022/06/19 04:02:48;;;;;;;12.57;4.28;;;23.00;65.30;;;23.32;94.00;99708.72;5023631;28;20041;-79
2022/06/19 04:05:15;;;;;;;11.73;4.45;;;23.00;65.70;;;23.42;91.39;99703.41;5015149;28;20065;-81
2022/06/19 04:07:45;;;;;;;13.35;5.03;;;23.00;65.20;;;23.42;88.86;99696.19;5017690;28;20128;-80
2022/06/19 04:10:14;;;;;;;21.80;5.40;;;23.00;64.70;;;23.49;88.25;99713.47;5034094;28;20103;-80
2022/06/19 04:12:42;;;;;;;17.67;6.03;;;23.10;65.20;;;23.56;89.04;99708.38;5003689;28;20030;-80
2022/06/19 04:15:12;;;;;;;14.02;4.57;;;23.10;65.20;;;23.62;85.95;99720.41;5018996;28;20049;-80
2022/06/19 04:17:39;;;;;;;12.13;4.10;;;23.10;64.80;;;23.63;86.44;99717.59;5019124;28;20064;-80
2022/06/19 04:20:08;;;;;;;9.13;4.13;;;23.20;64.90;;;23.59;86.07;99716.19;5034829;28;20042;-80
2022/06/19 04:22:37;;;;;;;19.17;5.13;;;23.20;65.20;;;23.63;92.42;99716.72;5035673;28;20406;-80
2022/06/19 04:25:07;;;;;;;10.80;4.00;;;23.40;66.60;;;23.56;97.38;99721.78;5019812;28;20064;-80
2022/06/19 04:27:37;;;;;;;;;;;23.20;68.60;;;23.62;97.21;99715.03;5021445;28;20144;-80
2022/06/19 04:30:04;;;;;;;16.83;5.03;;;23.20;68.40;;;23.56;98.76;99713.75;5035967;28;19924;-80
2022/06/19 04:32:31;;;;;;;17.23;4.43;;;23.20;69.50;;;23.53;100.00;99713.19;5004919;28;20045;-80
2022/06/19 04:34:58;;;;;;;12.20;5.20;;;23.20;70.60;;;23.51;98.86;99716.88;5020991;28;20045;-80
2022/06/19 04:37:25;;;;;;;18.58;4.57;;;23.20;70.80;;;23.50;99.55;99711.63;5018226;28;20068;-80
2022/06/19 04:39:52;;;;;;;16.55;4.65;;;23.20;71.60;;;23.58;98.57;99710.94;5032131;28;20495;-79
2022/06/19 04:42:19;;;;;;;13.32;4.75;;;23.20;71.10;;;23.59;95.88;99716.19;4997190;28;20049;-80
2022/06/19 04:44:46;;;;;;;15.02;4.40;;;23.20;71.50;;;23.70;96.50;99719.72;5013692;28;20073;-79
2022/06/19 04:47:13;;;;;;;15.32;5.22;;;23.20;71.90;;;23.70;97.87;99717.03;5012155;28;20056;-79
2022/06/19 04:49:41;;;;;;;13.48;4.20;;;23.30;73.00;;;23.77;96.70;99721.72;5011430;28;20507;-80
2022/06/19 04:52:08;;;;;;;12.52;4.18;;;23.30;72.30;;;23.82;94.67;99718.63;5025253;28;20038;-80
2022/06/19 04:54:35;;;;;;;10.35;3.90;;;23.40;71.70;;;23.88;95.63;99726.13;5014911;28;20388;-81
2022/06/19 04:57:02;;;;;;;15.07;4.88;;;23.40;72.70;;;23.84;97.12;99738.13;5030257;28;20148;-78
2022/06/19 04:59:29;;;;;;;12.80;4.50;;;23.50;72.90;;;23.87;100.00;99729.78;5046377;28;20116;-77
2022/06/19 05:01:56;;;;;;;10.70;3.63;;;23.50;74.10;;;23.95;95.86;99745.19;5026789;28;20064;-77
2022/06/19 05:04:23;;;;;;;16.00;5.30;;;23.50;73.40;;;24.09;96.87;99744.00;5027143;28;20054;-78
2022/06/19 05:06:50;;;;;;;9.77;3.85;;;23.60;74.40;;;24.04;100.00;99738.19;5027974;28;20041;-78
2022/06/19 05:09:18;;;;;;;13.75;4.78;;;23.60;75.50;;;24.16;95.65;99737.06;5031445;28;20053;-77
2022/06/19 05:11:45;;;;;;;11.65;4.20;;;23.60;74.40;;;24.19;97.09;99735.94;5054138;28;20051;-76
2022/06/19 05:14:13;;;;;;;10.63;4.18;;;23.70;75.30;;;24.30;96.94;99740.31;5035533;28;20638;-76
2022/06/19 05:16:40;;;;;;;10.70;4.60;;;23.70;75.10;;;24.34;97.25;99744.41;5033666;28;20064;-78
2022/06/19 05:19:10;;;;;;;12.43;4.28;;;23.80;75.60;;;24.32;98.35;99741.88;5032205;28;20058;-77
2022/06/19 05:21:37;;;;;;;17.75;4.78;;;23.80;75.90;;;24.33;95.72;99735.53;5035799;28;20456;-77
2022/06/19 05:24:05;;;;;;;22.08;5.70;;;23.90;75.70;;;24.38;98.56;99747.69;5046631;28;20041;-77
2022/06/19 05:26:34;;;;;;;13.70;4.22;;;23.90;76.30;;;24.46;96.17;99745.16;5033308;28;20053;-77
2022/06/19 05:29:03;;;;;;;13.15;4.55;;;23.90;75.70;;;24.44;94.39;99747.13;5041122;28;20050;-77
2022/06/19 05:31:32;;;;;;;13.90;4.28;;;24.00;75.20;;;24.61;93.19;99737.47;5009114;28;20046;-77
2022/06/19 05:33:59;;;;;;;13.90;5.25;;;24.00;75.00;;;24.78;92.08;99744.00;5018401;28;20051;-77
2022/06/19 05:36:34;;;;;;;11.13;4.35;;;24.10;75.10;;;24.88;91.17;99738.59;5026659;28;20060;-76
2022/06/19 05:39:07;;;;;;;14.45;4.60;;;24.30;74.90;;;24.96;89.77;99733.31;5011066;28;20045;-76
2022/06/19 05:41:34;;;;;;;9.50;3.90;;;24.40;74.60;;;25.14;88.83;99728.03;5028035;28;20057;-76
2022/06/19 05:44:01;;;;;;;12.48;3.92;;;24.50;74.20;;;25.17;89.09;99735.81;5026762;28;20041;-76
2022/06/19 05:46:28;;;;;;;8.60;3.38;;;24.60;74.30;;;25.25;87.41;99735.06;5026443;28;20048;-76
2022/06/19 05:48:55;;;;;;;10.95;4.60;;;24.70;73.90;;;25.29;88.84;99738.31;5026202;28;20097;-76
2022/06/19 05:51:25;;;;;;;13.88;4.03;;;24.70;74.00;;;25.38;85.76;99739.28;5011152;28;20087;-77
2022/06/19 05:53:57;;;;;;;11.32;4.22;;;24.80;73.50;;;25.44;88.46;99734.13;4997519;28;20049;-76
2022/06/19 05:56:27;;;;;;;13.27;4.40;;;24.80;73.70;;;25.48;85.06;99735.56;5032820;28;20049;-76
2022/06/19 05:58:54;;;;;;;19.48;5.55;;;24.90;73.10;;;25.43;86.92;99747.75;5032067;28;20132;-77
2022/06/19 06:01:22;;;;;;;18.13;4.38;;;25.00;73.30;;;25.49;84.13;99734.56;5035032;28;20046;-76
2022/06/19 06:03:50;;;;;;;13.30;4.88;;;25.00;72.70;;;25.50;83.47;99735.41;5033848;28;20469;-76
2022/06/19 06:06:25;;;;;;;16.55;4.97;;;25.00;72.30;;;25.64;80.82;99734.06;5034989;28;20054;-77
2022/06/19 06:08:53;;;;;;;15.80;4.13;;;25.10;72.10;;;25.68;78.80;99731.91;5018131;28;20148;-77
2022/06/19 06:11:21;;;;;;;15.82;5.30;;;25.20;71.40;;;25.80;76.97;99738.81;5031747;28;20052;-77
2022/06/19 06:13:48;;;;;;;14.07;5.38;;;25.30;71.10;;;25.86;71.97;99738.19;4999060;28;20912;-77
2022/06/19 06:16:18;;;;;;;20.50;4.95;;;25.30;69.70;;;26.03;71.17;99741.91;5019948;28;20030;-76
2022/06/19 06:18:45;;;;;;;;;;;25.50;69.60;;;26.14;70.35;99734.56;5019830;28;20042;-76
2022/06/19 06:21:21;;;;;;;13.50;4.72;;;25.60;69.20;;;26.22;70.85;99739.22;5019558;28;19921;-76
2022/06/19 06:23:49;;;;;;;23.77;6.32;;;25.70;69.20;;;26.28;72.00;99734.06;5013000;28;20129;-76
2022/06/19 06:26:20;;;;;;;21.55;5.40;;;25.80;69.40;;;26.43;69.60;99737.06;5031414;28;20114;-76
2022/06/19 06:28:51;;;;;;;15.90;5.70;;;25.90;68.90;;;26.51;66.52;99736.28;5027371;28;20052;-79
2022/06/19 06:31:18;;;;;;;16.10;5.68;;;26.00;68.10;;;26.59;66.58;99722.03;5025587;28;20045;-76
2022/06/19 06:33:46;;;;;;;15.07;5.18;;;26.00;67.90;;;26.73;63.73;99721.47;5030189;28;20049;-77
2022/06/19 06:36:15;;;;;;;17.95;5.38;;;26.20;67.40;;;26.84;64.16;99728.44;4998116;28;20037;-75
2022/06/19 06:38:43;;;;;;;17.75;5.25;;;26.30;67.40;;;26.87;63.75;99721.91;5010997;28;20065;-77
2022/06/19 06:41:12;;;;;;;22.35;5.88;;;26.30;67.10;;;26.93;64.12;99723.97;5011705;28;20050;-77
2022/06/19 06:43:42;;;;;;;13.23;4.97;;;26.40;67.20;;;27.01;65.01;99728.56;4996426;28;20045;-77
2022/06/19 06:46:23;;;;;;;14.80;5.88;;;26.50;67.50;;;27.12;65.28;99731.00;5012875;28;20077;-77
2022/06/19 06:48:53;;;;;;;18.52;5.85;;;26.60;67.70;;;27.21;65.99;99739.13;5010883;28;20576;-75
2022/06/19 06:51:26;;;;;;;20.60;5.32;;;26.70;67.80;;;27.31;65.97;99734.47;5016084;28;20047;-75
2022/06/19 06:53:54;;;;;;;16.45;5.05;;;26.80;68.30;;;27.39;65.13;99747.16;5045823;28;20037;-76
2022/06/19 06:56:22;;;;;;;14.45;5.18;;;26.80;67.60;;;27.43;65.38;99740.41;5029090;28;20049;-77
2022/06/19 06:58:49;;;;;;;16.13;5.28;;;26.90;67.60;;;27.51;66.12;99751.28;5045816;28;20050;-76
2022/06/19 07:01:20;;;;;;;17.23;5.43;;;27.00;67.90;;;27.64;65.86;99744.59;5028947;28;20429;-76
2022/06/19 07:03:59;;;;;;;14.60;5.60;;;27.00;67.90;;;27.73;66.61;99740.91;5030744;28;20469;-76
2022/06/19 07:06:29;;;;;;;15.23;5.97;;;27.10;68.60;;;27.79;67.58;99732.16;5029382;28;20104;-77
2022/06/19 07:08:57;;;;;;;21.05;5.53;;;27.20;68.30;;;27.87;68.77;99731.31;5028901;28;20427;-76
2022/06/19 07:11:35;;;;;;;16.67;5.68;;;27.20;68.70;;;27.91;67.19;99727.28;5030441;28;20057;-76
2022/06/19 07:14:04;;;;;;;15.13;5.78;;;27.30;68.30;;;28.05;67.11;99738.44;5030116;28;20052;-76
2022/06/19 07:16:31;;;;;;;15.52;5.30;;;27.50;68.40;;;28.14;66.82;99734.72;5031958;28;20049;-76
2022/06/19 07:18:58;;;;;;;13.65;5.88;;;27.10;68.00;;;28.18;67.19;99728.03;5035582;28;20136;-76
2022/06/19 07:21:26;;;;;;;12.35;5.80;;;27.60;68.50;;;28.27;67.42;99735.09;5013365;28;20050;-76
2022/06/19 07:23:53;;;;;;;20.23;6.10;;;27.70;68.60;;;28.43;66.37;99749.66;5009964;28;20056;-76
2022/06/19 07:26:24;;;;;;;12.55;5.90;;;27.70;68.50;;;28.56;64.20;99738.31;5034916;28;20033;-75
2022/06/19 07:28:51;;;;;;;13.88;5.95;;;27.80;68.10;;;28.68;63.74;99734.25;5027801;28;20079;-76
2022/06/19 07:31:27;;;;;;;20.85;6.78;;;28.00;68.10;;;28.73;63.94;99731.03;5021762;28;20115;-76
2022/06/19 07:33:54;;;;;;;14.85;6.05;;;28.10;68.00;;;28.87;62.23;99719.53;5008637;28;20058;-75
2022/06/19 07:36:23;;;;;;;11.43;5.80;;;28.20;67.70;;;29.00;61.30;99729.81;5008607;28;20145;-76
2022/06/19 07:38:50;;;;;;;19.40;6.40;;;28.30;67.40;;;29.04;60.41;99724.09;5009266;28;20046;-75
2022/06/19 07:41:18;;;;;;;14.00;6.63;;;28.40;67.00;;;29.09;61.30;99717.09;5008836;28;20184;-76
2022/06/19 07:43:45;;;;;;;14.52;7.18;;;28.50;67.30;;;29.19;60.49;99719.63;5008419;28;20060;-76
2022/06/19 07:46:13;;;;;;;14.18;6.70;;;28.50;67.10;;;29.26;60.94;99714.34;5008547;28;20116;-76
2022/06/19 07:51:31;;;;;;;21.05;7.80;;;28.70;67.00;;;29.49;59.06;99717.16;5016940;28;20129;-76
2022/06/19 07:54:00;;;;;;;14.68;7.28;;;28.80;66.80;;;29.56;56.45;99720.00;5011397;28;20042;-75
2022/06/19 07:56:27;;;;;;;15.10;6.75;;;28.90;66.00;;;29.67;56.13;99713.34;5044486;28;20124;-76
2022/06/19 07:58:55;;;;;;;11.95;6.15;;;29.00;65.90;;;29.77;56.65;99713.97;5027295;28;20137;-75
2022/06/19 08:01:22;;;;;;;21.00;6.40;;;29.10;66.10;;;29.89;55.62;99718.97;5044612;28;20513;-75
2022/06/19 08:03:56;;;;;;;13.43;6.15;;;29.20;65.90;;;30.00;55.42;99722.13;5027950;28;20124;-76
2022/06/19 08:06:25;;;;;;;12.98;5.93;;;29.30;65.90;;;30.00;55.57;99726.72;5044380;28;20414;-76
2022/06/19 08:08:52;;;;;;;11.65;6.95;;;29.30;65.70;;;30.11;56.23;99707.31;5027578;28;20073;-75
2022/06/19 08:11:19;;;;;;;13.88;6.28;;;29.40;65.90;;;30.22;54.78;99706.06;5029034;28;20041;-76
2022/06/19 08:13:46;;;;;;;18.23;6.20;;;29.50;65.40;;;30.24;52.65;99711.28;5029201;28;20534;-75
2022/06/19 08:16:13;;;;;;;15.52;6.28;;;29.60;64.90;;;30.36;53.34;99704.41;5027110;28;20471;-76
2022/06/19 08:18:40;;;;;;;21.80;6.78;;;29.70;65.10;;;30.42;50.89;99716.41;4994519;28;20069;-76
2022/06/19 08:21:07;;;;;;;15.98;6.47;;;29.70;64.30;;;30.42;49.32;99713.69;5026888;28;20045;-75
2022/06/19 08:23:34;;;;;;;13.15;5.88;;;29.80;63.40;;;30.59;49.66;99699.97;5028906;28;20038;-76
2022/06/19 08:26:02;;;;;;;11.38;5.90;;;29.80;63.60;;;30.62;48.22;99696.88;5010853;28;20034;-75
2022/06/19 08:31:26;;;;;;;12.63;5.85;;;30.00;63.00;;;30.80;47.39;99691.97;5022537;28;20068;-77
2022/06/19 08:33:54;;;;;;;10.02;6.18;;;30.10;62.60;;;30.87;47.68;99688.53;5008424;28;20050;-75
2022/06/19 08:36:24;;;;;;;11.57;5.90;;;30.20;62.80;;;30.86;45.88;99684.97;4990988;28;20042;-76
2022/06/19 08:38:59;;;;;;;14.60;5.80;;;30.20;61.70;;;31.08;45.18;99688.59;4998014;28;20398;-75
2022/06/19 08:42:07;;;;;;;12.57;5.60;;;30.30;61.60;;;31.24;45.26;99698.47;5007045;28;20041;-75
2022/06/19 08:45:06;;;;;;;9.70;5.18;;;30.50;61.80;;;31.32;45.76;99696.69;5012637;28;20140;-76
2022/06/19 08:47:57;;;;;;;11.52;6.22;;;30.50;62.30;;;31.47;43.39;99696.66;5028221;28;20654;-76
2022/06/19 08:50:35;;;;;;;11.55;5.72;;;30.60;60.70;;;31.49;41.61;99698.13;5026704;28;20487;-75
2022/06/19 08:53:30;;;;;;;13.18;6.15;;;30.80;59.60;;;31.64;41.75;99689.97;5028090;28;20041;-75
2022/06/19 08:56:43;;;;;;;15.75;6.30;;;30.90;59.90;;;31.79;38.62;99702.72;5028555;28;20045;-76
2022/06/19 08:59:48;;;;;;;11.68;6.22;;;31.00;58.50;;;31.89;38.33;99705.09;5043168;28;20084;-77
2022/06/19 09:02:49;;;;;;;12.10;6.05;;;31.10;57.50;;;32.01;37.62;99708.16;5025741;28;20048;-76
2022/06/19 09:05:58;;;;;;;15.77;5.22;;;31.30;57.10;;;32.10;37.69;99701.56;5012756;28;20244;-76
2022/06/19 09:08:39;;;;;;;11.40;5.88;;;31.40;57.10;;;32.27;37.19;99698.56;5007378;28;20061;-76
2022/06/19 09:11:28;;;;;;;10.10;5.63;;;31.40;56.90;;;32.35;36.09;99691.13;5023412;28;20601;-77
2022/06/19 09:14:29;;;;;;;11.65;5.25;;;31.50;56.00;;;32.37;35.22;99697.22;5026073;28;20502;-77
2022/06/19 09:17:11;;;;;;;8.60;4.95;;;31.60;55.00;;;32.45;34.83;99706.25;5023639;28;20077;-75
2022/06/19 09:20:17;;;;;;;9.73;5.10;;;31.70;54.90;;;32.46;34.90;99692.47;5020246;28;20034;-77
2022/06/19 09:23:10;;;;;;;7.68;4.97;;;31.80;54.80;;;32.61;34.61;99689.63;5013245;28;20056;-76
2022/06/19 09:25:55;;;;;;;9.23;5.93;;;31.80;54.80;;;32.65;34.24;99700.97;5028537;28;20608;-76
2022/06/19 09:28:37;;;;;;;10.18;5.47;;;31.90;54.30;;;32.68;34.38;99708.75;5027318;28;20049;-76
2022/06/19 09:31:37;;;;;;;12.98;6.05;;;32.00;54.20;;;32.74;34.31;99707.97;5030739;28;20045;-76
2022/06/19 09:34:19;;;;;;;12.02;5.30;;;32.00;54.20;;;32.78;34.01;99722.00;5024962;28;20072;-76
2022/06/19 09:36:55;;;;;;;9.02;5.57;;;32.10;54.00;;;32.75;34.36;99716.97;5011056;28;20061;-76
2022/06/19 09:39:56;;;;;;;12.00;5.40;;;32.10;54.10;;;32.82;33.88;99715.97;4995828;28;20046;-76
2022/06/19 09:42:43;;;;;;;11.30;4.95;;;32.10;53.50;;;32.84;34.23;99713.06;5012514;28;20100;-77
2022/06/19 09:45:26;;;;;;;13.50;5.88;;;32.20;53.90;;;32.81;33.96;99717.00;5011582;28;20038;-76
2022/06/19 09:48:12;;;;;;;8.20;4.65;;;32.10;53.40;;;32.94;34.71;99712.72;5011226;28;20136;-76
2022/06/19 09:50:54;;;;;;;10.65;6.25;;;32.20;54.20;;;32.90;34.59;99709.56;5020990;28;20045;-76
2022/06/19 09:53:29;;;;;;;7.03;5.18;;;32.30;54.10;;;33.02;34.81;99719.91;5011912;28;20052;-77
2022/06/19 09:56:46;;;;;;;12.30;5.72;;;32.30;54.30;;;33.17;34.51;99709.72;5011379;28;20046;-76
2022/06/19 09:59:53;;;;;;;15.00;5.63;;;32.40;54.20;;;33.37;34.59;99706.22;5012015;28;20060;-78
2022/06/19 10:03:00;;;;;;;11.25;5.57;;;32.50;54.50;;;33.39;33.80;99709.59;4994548;28;20628;-76
2022/06/19 10:06:14;;;;;;;9.48;5.10;;;32.50;53.80;;;33.58;33.71;99727.09;5010771;28;20132;-76
2022/06/19 10:09:18;;;;;;;9.93;5.30;;;32.70;53.90;;;33.50;33.29;99730.84;5027595;28;20187;-77
2022/06/19 10:11:48;;;;;;;12.55;4.80;;;32.80;53.20;;;33.21;33.96;99719.16;5019257;28;20056;-79
2022/06/19 10:14:42;;;;;;;11.77;5.65;;;32.70;53.30;;;33.51;34.36;99709.91;5015769;28;20041;-78
2022/06/19 10:17:24;;;;;;;9.43;5.57;;;32.70;54.00;;;33.67;33.22;99719.59;5030847;28;20064;-78
2022/06/19 10:20:17;;;;;;;12.98;4.85;;;32.80;53.20;;;33.50;33.43;99706.31;5033383;28;20555;-80
2022/06/19 10:23:57;;;;;;;8.10;5.40;;;32.80;53.00;;;33.76;33.19;99691.09;5017401;28;20045;-80
2022/06/19 10:26:46;;;;;;;9.25;5.43;;;33.30;53.20;;;33.90;33.06;99688.38;5010853;28;20629;-80
2022/06/19 10:29:41;;;;;;;11.05;5.50;;;33.10;53.10;;;33.77;31.61;99692.75;5032051;28;20045;-81
2022/06/19 10:33:05;;;;;;;8.65;4.90;;;33.20;52.80;;;33.85;33.80;99694.47;5047172;28;20038;-80
2022/06/19 10:35:41;;;;;;;10.45;5.80;;;33.10;53.10;;;34.00;32.55;99680.66;5009842;28;20510;-77
2022/06/19 10:38:58;;;;;;;10.15;5.35;;;33.10;52.70;;;34.06;32.15;99682.56;5035803;28;20075;-85
2022/06/19 10:42:01;;;;;;;7.65;4.82;;;33.20;52.10;;;34.16;31.49;99697.66;5013303;28;20065;-76
2022/06/19 10:44:43;;;;;;;12.48;4.35;;;33.30;51.60;;;34.30;29.71;99684.88;5027807;28;20589;-76
2022/06/19 10:48:01;;;;;;;11.38;4.90;;;33.40;50.30;;;34.40;29.00;99690.75;5031049;28;20077;-75